Positano Jet — IFTU — position and weather

sailwx.info

Track history (hours):
 
Tides and Currents Weather Stations Pressure Air Temp Water Temp Dewpoint Dewpoint Depression Visibility Wind Speed Wind Dir Waves Ship Positions

Positano Jet

Last reported at 2015-Jul-04 16:33 UTC. Time now 2015-Jul-04 16:59 UTC.
Position N 40°34' E 014°18'.

Length 23 m; draft 2 m.

Type: Ship. MMSI: 247160800.

Date/timePositionNaut miles runAvg speedWind from/ knotsBaromVisibWave heightAir tempDewpointWater temp
2015-Jul-04 16:33N 40°34' E 014°18'9 8.4
2015-Jul-04 15:26N 40°37' E 014°29'0 0.0
2015-Jul-04 14:25N 40°37' E 014°29'6 7.0
2015-Jul-04 13:31N 40°35' E 014°22'5 5.5
2015-Jul-04 12:34N 40°34' E 014°15'1110.8
2015-Jul-04 11:30N 40°38' E 014°29'5 4.9
2015-Jul-04 10:27N 40°35' E 014°23'7 7.9
2015-Jul-04 09:34N 40°33' E 014°14'1010.3
2015-Jul-04 08:33N 40°36' E 014°28'0 0.0
2015-Jul-03 17:33N 40°36' E 014°27'6 6.2
2015-Jul-03 16:33N 40°34' E 014°20'8 8.0
2015-Jul-03 15:32N 40°37' E 014°29'0 0.0
2015-Jul-03 14:30N 40°37' E 014°29'6 5.8
2015-Jul-03 13:28N 40°35' E 014°22'5 6.0
2015-Jul-03 12:34N 40°34' E 014°15'9 4.1
2015-Jul-03 10:28N 40°35' E 014°26'910.0
2015-Jul-03 09:33N 40°33' E 014°14'1010.4
2015-Jul-03 08:33N 40°36' E 014°28'0 0.0
2015-Jul-02 17:30N 40°37' E 014°27'7 7.5
2015-Jul-02 16:33N 40°34' E 014°19'1 0.4
2015-Jul-02 13:24N 40°34' E 014°20'4 4.4
2015-Jul-02 12:34N 40°34' E 014°15'4 1.7
2015-Jul-02 10:22N 40°34' E 014°20'5 5.7
2015-Jul-02 09:33N 40°33' E 014°14'12 9.1
2015-Jul-02 08:14N 40°38' E 014°29'3 0.2
2015-Jul-01 17:25N 40°36' E 014°26'5 5.6
2015-Jul-01 16:34N 40°34' E 014°20'8 7.9
2015-Jul-01 15:33N 40°37' E 014°29'0 0.0
2015-Jul-01 14:07N 40°37' E 014°29'711.5
2015-Jul-01 13:28N 40°34' E 014°21'4 4.8
2015-Jul-01 12:34N 40°34' E 014°15'6 2.7
2015-Jul-01 10:21N 40°34' E 014°23'4 5.5
2015-Jul-01 09:33N 40°36' E 014°18'1110.9
2015-Jul-01 08:33N 40°43' E 014°29'0 0.0
2015-Jun-30 16:11N 40°43' E 014°29'0 0.0
2015-Jun-30 15:32N 40°43' E 014°29'0 0.0
2015-Jun-30 14:32N 40°43' E 014°29'0 0.0
2015-Jun-30 13:32N 40°43' E 014°29'0 0.0
2015-Jun-30 12:32N 40°43' E 014°29'0 0.0
2015-Jun-30 11:29N 40°43' E 014°29'0 0.0
2015-Jun-30 10:33N 40°43' E 014°29'10 9.6
2015-Jun-30 09:32N 40°36' E 014°19'3 0.2
2015-Jun-29 16:15N 40°34' E 014°21'3 3.7
2015-Jun-29 15:32N 40°34' E 014°17'10 7.1
2015-Jun-29 14:08N 40°38' E 014°29'6 9.7
2015-Jun-29 13:30N 40°35' E 014°22'5 5.5
2015-Jun-29 12:33N 40°34' E 014°15'8 3.7
2015-Jun-29 10:28N 40°35' E 014°25'8 9.3
2015-Jun-29 09:33N 40°33' E 014°14'7 0.4
2015-Jun-28 16:22N 40°35' E 014°23'4 4.8
2015-Jun-28 15:30N 40°34' E 014°18'9 7.0
2015-Jun-28 14:13N 40°38' E 014°29'8 9.5
2015-Jun-28 13:25N 40°34' E 014°20'4 4.2
2015-Jun-28 12:33N 40°34' E 014°16'8 4.0
2015-Jun-28 10:28N 40°36' E 014°26'910.3
2015-Jun-28 09:33N 40°33' E 014°14'1110.7
2015-Jun-28 08:31N 40°37' E 014°28'7 0.4
2015-Jun-27 16:15N 40°34' E 014°21'4 4.2
2015-Jun-27 15:16N 40°36' E 014°25'3 3.0
2015-Jun-27 14:09N 40°37' E 014°29'6 8.7
2015-Jun-27 13:29N 40°35' E 014°22'6 6.0
2015-Jun-27 12:33N 40°34' E 014°15'6 2.9
2015-Jun-27 10:23N 40°34' E 014°23'7 8.3
2015-Jun-27 09:33N 40°33' E 014°14'6 0.3
2015-Jun-26 16:18N 40°35' E 014°22'4 4.9
2015-Jun-26 15:33N 40°34' E 014°17'2 0.7
2015-Jun-26 13:24N 40°34' E 014°19'3 3.4
2015-Jun-26 12:33N 40°34' E 014°16'7 3.6
2015-Jun-26 10:29N 40°36' E 014°25'8 9.1
2015-Jun-26 09:33N 40°33' E 014°14'12 0.7
2015-Jun-25 16:33N 40°37' E 014°29'1010.3
2015-Jun-25 15:33N 40°34' E 014°16'4 2.0
2015-Jun-25 13:29N 40°35' E 014°22'4 4.3
2015-Jun-25 12:34N 40°34' E 014°17'2 0.9
2015-Jun-25 10:17N 40°34' E 014°19'4 4.4
2015-Jun-25 09:23N 40°33' E 014°14'  
Track history (hours):
 
Tides and Currents Weather Stations Pressure Air Temp Water Temp Dewpoint Dewpoint Depression Visibility Wind Speed Wind Dir Waves Ship Positions

Positano Jet

Last reported at 2015-Jul-04 16:33 UTC. Time now 2015-Jul-04 16:59 UTC.
Position N 40°34' E 014°18'.

Length 23 m; draft 2 m.

Type: Ship. MMSI: 247160800.

Date/timePositionNaut miles runAvg speedWind from/ knotsBaromVisibWave heightAir tempDewpointWater temp
2015-Jul-04 16:33N 40°34' E 014°18'9 8.4
2015-Jul-04 15:26N 40°37' E 014°29'0 0.0
2015-Jul-04 14:25N 40°37' E 014°29'6 7.0
2015-Jul-04 13:31N 40°35' E 014°22'5 5.5
2015-Jul-04 12:34N 40°34' E 014°15'1110.8
2015-Jul-04 11:30N 40°38' E 014°29'5 4.9
2015-Jul-04 10:27N 40°35' E 014°23'7 7.9
2015-Jul-04 09:34N 40°33' E 014°14'1010.3
2015-Jul-04 08:33N 40°36' E 014°28'0 0.0
2015-Jul-03 17:33N 40°36' E 014°27'6 6.2
2015-Jul-03 16:33N 40°34' E 014°20'8 8.0
2015-Jul-03 15:32N 40°37' E 014°29'0 0.0
2015-Jul-03 14:30N 40°37' E 014°29'6 5.8
2015-Jul-03 13:28N 40°35' E 014°22'5 6.0
2015-Jul-03 12:34N 40°34' E 014°15'9 4.1
2015-Jul-03 10:28N 40°35' E 014°26'910.0
2015-Jul-03 09:33N 40°33' E 014°14'1010.4
2015-Jul-03 08:33N 40°36' E 014°28'0 0.0
2015-Jul-02 17:30N 40°37' E 014°27'7 7.5
2015-Jul-02 16:33N 40°34' E 014°19'1 0.4
2015-Jul-02 13:24N 40°34' E 014°20'4 4.4
2015-Jul-02 12:34N 40°34' E 014°15'4 1.7
2015-Jul-02 10:22N 40°34' E 014°20'5 5.7
2015-Jul-02 09:33N 40°33' E 014°14'12 9.1
2015-Jul-02 08:14N 40°38' E 014°29'3 0.2
2015-Jul-01 17:25N 40°36' E 014°26'5 5.6
2015-Jul-01 16:34N 40°34' E 014°20'8 7.9
2015-Jul-01 15:33N 40°37' E 014°29'0 0.0
2015-Jul-01 14:07N 40°37' E 014°29'711.5
2015-Jul-01 13:28N 40°34' E 014°21'4 4.8
2015-Jul-01 12:34N 40°34' E 014°15'6 2.7
2015-Jul-01 10:21N 40°34' E 014°23'4 5.5
2015-Jul-01 09:33N 40°36' E 014°18'1110.9
2015-Jul-01 08:33N 40°43' E 014°29'0 0.0
2015-Jun-30 16:11N 40°43' E 014°29'0 0.0
2015-Jun-30 15:32N 40°43' E 014°29'0 0.0
2015-Jun-30 14:32N 40°43' E 014°29'0 0.0
2015-Jun-30 13:32N 40°43' E 014°29'0 0.0
2015-Jun-30 12:32N 40°43' E 014°29'0 0.0
2015-Jun-30 11:29N 40°43' E 014°29'0 0.0
2015-Jun-30 10:33N 40°43' E 014°29'10 9.6
2015-Jun-30 09:32N 40°36' E 014°19'3 0.2
2015-Jun-29 16:15N 40°34' E 014°21'3 3.7
2015-Jun-29 15:32N 40°34' E 014°17'10 7.1
2015-Jun-29 14:08N 40°38' E 014°29'6 9.7
2015-Jun-29 13:30N 40°35' E 014°22'5 5.5
2015-Jun-29 12:33N 40°34' E 014°15'8 3.7
2015-Jun-29 10:28N 40°35' E 014°25'8 9.3
2015-Jun-29 09:33N 40°33' E 014°14'7 0.4
2015-Jun-28 16:22N 40°35' E 014°23'4 4.8
2015-Jun-28 15:30N 40°34' E 014°18'9 7.0
2015-Jun-28 14:13N 40°38' E 014°29'8 9.5
2015-Jun-28 13:25N 40°34' E 014°20'4 4.2
2015-Jun-28 12:33N 40°34' E 014°16'8 4.0
2015-Jun-28 10:28N 40°36' E 014°26'910.3
2015-Jun-28 09:33N 40°33' E 014°14'1110.7
2015-Jun-28 08:31N 40°37' E 014°28'7 0.4
2015-Jun-27 16:15N 40°34' E 014°21'4 4.2
2015-Jun-27 15:16N 40°36' E 014°25'3 3.0
2015-Jun-27 14:09N 40°37' E 014°29'6 8.7
2015-Jun-27 13:29N 40°35' E 014°22'6 6.0
2015-Jun-27 12:33N 40°34' E 014°15'6 2.9
2015-Jun-27 10:23N 40°34' E 014°23'7 8.3
2015-Jun-27 09:33N 40°33' E 014°14'6 0.3
2015-Jun-26 16:18N 40°35' E 014°22'4 4.9
2015-Jun-26 15:33N 40°34' E 014°17'2 0.7
2015-Jun-26 13:24N 40°34' E 014°19'3 3.4
2015-Jun-26 12:33N 40°34' E 014°16'7 3.6
2015-Jun-26 10:29N 40°36' E 014°25'8 9.1
2015-Jun-26 09:33N 40°33' E 014°14'12 0.7
2015-Jun-25 16:33N 40°37' E 014°29'1010.3
2015-Jun-25 15:33N 40°34' E 014°16'4 2.0
2015-Jun-25 13:29N 40°35' E 014°22'4 4.3
2015-Jun-25 12:34N 40°34' E 014°17'2 0.9
2015-Jun-25 10:17N 40°34' E 014°19'4 4.4
2015-Jun-25 09:23N 40°33' E 014°14'  

Dump ship's entire track history